sensor_id;sensor_type;location;lat;lon;timestamp;temperature;humidity
48007;DHT22;33771;48.180;11.400;2023-07-24T00:00:13;17.80;99.90
48007;DHT22;33771;48.180;11.400;2023-07-24T00:02:39;17.80;99.90
48007;DHT22;33771;48.180;11.400;2023-07-24T00:05:05;17.80;99.90
48007;DHT22;33771;48.180;11.400;2023-07-24T00:07:30;17.80;99.90
48007;DHT22;33771;48.180;11.400;2023-07-24T00:09:56;17.70;99.90
48007;DHT22;33771;48.180;11.400;2023-07-24T00:12:22;17.70;99.90
48007;DHT22;33771;48.180;11.400;2023-07-24T00:14:47;17.70;99.90
48007;DHT22;33771;48.180;11.400;2023-07-24T00:17:13;17.60;99.90
48007;DHT22;33771;48.180;11.400;2023-07-24T00:19:39;17.60;99.90
48007;DHT22;33771;48.180;11.400;2023-07-24T00:22:04;17.60;99.90
48007;DHT22;33771;48.180;11.400;2023-07-24T00:24:31;17.60;99.90
48007;DHT22;33771;48.180;11.400;2023-07-24T00:26:57;17.60;99.90
48007;DHT22;33771;48.180;11.400;2023-07-24T00:29:23;17.50;99.90
48007;DHT22;33771;48.180;11.400;2023-07-24T00:31:49;17.50;99.90
48007;DHT22;33771;48.180;11.400;2023-07-24T00:34:14;17.40;99.90
48007;DHT22;33771;48.180;11.400;2023-07-24T00:36:40;17.40;99.90
48007;DHT22;33771;48.180;11.400;2023-07-24T00:39:06;17.40;99.90
48007;DHT22;33771;48.180;11.400;2023-07-24T00:41:31;17.30;99.90
48007;DHT22;33771;48.180;11.400;2023-07-24T00:43:57;17.30;99.90
48007;DHT22;33771;48.180;11.400;2023-07-24T00:46:23;17.30;99.90
48007;DHT22;33771;48.180;11.400;2023-07-24T00:48:50;17.30;99.90
48007;DHT22;33771;48.180;11.400;2023-07-24T00:51:16;17.20;99.90
48007;DHT22;33771;48.180;11.400;2023-07-24T00:53:42;17.20;99.90
48007;DHT22;33771;48.180;11.400;2023-07-24T00:56:07;17.20;99.90
48007;DHT22;33771;48.180;11.400;2023-07-24T00:58:37;17.20;99.90
48007;DHT22;33771;48.180;11.400;2023-07-24T01:01:03;17.10;99.90
48007;DHT22;33771;48.180;11.400;2023-07-24T01:03:34;17.00;99.90
48007;DHT22;33771;48.180;11.400;2023-07-24T01:06:01;17.00;99.90
48007;DHT22;33771;48.180;11.400;2023-07-24T01:08:28;17.00;99.90
48007;DHT22;33771;48.180;11.400;2023-07-24T01:10:55;17.00;99.90
48007;DHT22;33771;48.180;11.400;2023-07-24T01:13:25;17.00;99.90
48007;DHT22;33771;48.180;11.400;2023-07-24T01:16:13;17.00;99.90
48007;DHT22;33771;48.180;11.400;2023-07-24T01:18:39;16.90;99.90
48007;DHT22;33771;48.180;11.400;2023-07-24T01:21:06;16.90;99.90
48007;DHT22;33771;48.180;11.400;2023-07-24T01:24:03;16.90;99.90
48007;DHT22;33771;48.180;11.400;2023-07-24T01:26:30;16.90;99.90
48007;DHT22;33771;48.180;11.400;2023-07-24T01:28:55;16.90;99.90
48007;DHT22;33771;48.180;11.400;2023-07-24T01:31:21;16.90;99.90
48007;DHT22;33771;48.180;11.400;2023-07-24T01:33:46;17.00;99.90
48007;DHT22;33771;48.180;11.400;2023-07-24T01:36:13;17.00;99.90
48007;DHT22;33771;48.180;11.400;2023-07-24T01:38:40;17.00;99.90
48007;DHT22;33771;48.180;11.400;2023-07-24T01:41:06;17.00;99.90
48007;DHT22;33771;48.180;11.400;2023-07-24T01:43:32;17.10;99.90
48007;DHT22;33771;48.180;11.400;2023-07-24T01:45:58;17.10;99.90
48007;DHT22;33771;48.180;11.400;2023-07-24T01:48:24;17.00;99.90
48007;DHT22;33771;48.180;11.400;2023-07-24T01:50:49;16.90;99.90
48007;DHT22;33771;48.180;11.400;2023-07-24T01:53:16;16.90;99.90
48007;DHT22;33771;48.180;11.400;2023-07-24T01:55:41;16.90;99.90
48007;DHT22;33771;48.180;11.400;2023-07-24T01:58:07;16.90;99.90
48007;DHT22;33771;48.180;11.400;2023-07-24T02:00:32;16.80;99.90
48007;DHT22;33771;48.180;11.400;2023-07-24T02:02:58;16.80;99.90
48007;DHT22;33771;48.180;11.400;2023-07-24T02:05:24;16.70;99.90
48007;DHT22;33771;48.180;11.400;2023-07-24T02:07:49;16.80;99.90
48007;DHT22;33771;48.180;11.400;2023-07-24T02:10:15;16.80;99.90
48007;DHT22;33771;48.180;11.400;2023-07-24T02:12:40;16.90;99.90
48007;DHT22;33771;48.180;11.400;2023-07-24T02:15:06;16.90;99.90
48007;DHT22;33771;48.180;11.400;2023-07-24T02:17:32;16.90;99.90
48007;DHT22;33771;48.180;11.400;2023-07-24T02:19:58;17.00;99.90
48007;DHT22;33771;48.180;11.400;2023-07-24T02:22:24;16.90;99.90
48007;DHT22;33771;48.180;11.400;2023-07-24T02:24:49;17.00;99.90
48007;DHT22;33771;48.180;11.400;2023-07-24T02:27:26;17.00;99.90
48007;DHT22;33771;48.180;11.400;2023-07-24T02:29:51;17.00;99.90
48007;DHT22;33771;48.180;11.400;2023-07-24T02:32:17;17.10;99.90
48007;DHT22;33771;48.180;11.400;2023-07-24T02:34:43;17.10;99.90
48007;DHT22;33771;48.180;11.400;2023-07-24T02:37:08;17.20;99.90
48007;DHT22;33771;48.180;11.400;2023-07-24T02:39:34;17.30;99.90
48007;DHT22;33771;48.180;11.400;2023-07-24T02:41:59;17.40;99.90
48007;DHT22;33771;48.180;11.400;2023-07-24T02:44:25;17.50;99.90
48007;DHT22;33771;48.180;11.400;2023-07-24T02:46:50;17.50;99.90
48007;DHT22;33771;48.180;11.400;2023-07-24T02:49:16;17.60;99.90
48007;DHT22;33771;48.180;11.400;2023-07-24T02:51:41;17.60;99.90
48007;DHT22;33771;48.180;11.400;2023-07-24T02:54:07;17.70;99.90
48007;DHT22;33771;48.180;11.400;2023-07-24T02:56:32;17.70;99.90
48007;DHT22;33771;48.180;11.400;2023-07-24T02:58:58;17.80;99.90
48007;DHT22;33771;48.180;11.400;2023-07-24T03:01:23;17.80;99.90
48007;DHT22;33771;48.180;11.400;2023-07-24T03:03:49;17.80;99.90
48007;DHT22;33771;48.180;11.400;2023-07-24T03:06:15;17.80;99.90
48007;DHT22;33771;48.180;11.400;2023-07-24T03:08:40;17.80;99.90
48007;DHT22;33771;48.180;11.400;2023-07-24T03:11:07;17.70;99.90
48007;DHT22;33771;48.180;11.400;2023-07-24T03:13:32;17.70;99.90
48007;DHT22;33771;48.180;11.400;2023-07-24T03:15:58;17.70;99.90
48007;DHT22;33771;48.180;11.400;2023-07-24T03:18:24;17.70;99.90
48007;DHT22;33771;48.180;11.400;2023-07-24T03:20:50;17.70;99.90
48007;DHT22;33771;48.180;11.400;2023-07-24T03:23:16;17.70;99.90
48007;DHT22;33771;48.180;11.400;2023-07-24T03:25:42;17.70;99.90
48007;DHT22;33771;48.180;11.400;2023-07-24T03:28:08;17.60;99.90
48007;DHT22;33771;48.180;11.400;2023-07-24T03:30:33;17.60;99.90
48007;DHT22;33771;48.180;11.400;2023-07-24T03:32:59;17.60;99.90
48007;DHT22;33771;48.180;11.400;2023-07-24T03:35:25;17.50;99.90
48007;DHT22;33771;48.180;11.400;2023-07-24T03:37:50;17.50;99.90
48007;DHT22;33771;48.180;11.400;2023-07-24T03:40:16;17.50;99.90
48007;DHT22;33771;48.180;11.400;2023-07-24T03:42:41;17.40;99.90
48007;DHT22;33771;48.180;11.400;2023-07-24T03:45:07;17.40;99.90
48007;DHT22;33771;48.180;11.400;2023-07-24T03:47:33;17.30;99.90
48007;DHT22;33771;48.180;11.400;2023-07-24T03:49:59;17.30;99.90
48007;DHT22;33771;48.180;11.400;2023-07-24T03:52:25;17.30;99.90
48007;DHT22;33771;48.180;11.400;2023-07-24T03:54:51;17.30;99.90
48007;DHT22;33771;48.180;11.400;2023-07-24T03:57:17;17.30;99.90
48007;DHT22;33771;48.180;11.400;2023-07-24T03:59:43;17.30;99.90
48007;DHT22;33771;48.180;11.400;2023-07-24T04:02:09;17.30;99.90
48007;DHT22;33771;48.180;11.400;2023-07-24T04:04:34;17.30;99.90
48007;DHT22;33771;48.180;11.400;2023-07-24T04:07:00;17.30;99.90
48007;DHT22;33771;48.180;11.400;2023-07-24T04:09:26;17.30;99.90
48007;DHT22;33771;48.180;11.400;2023-07-24T04:11:52;17.30;99.90
48007;DHT22;33771;48.180;11.400;2023-07-24T04:14:17;17.30;99.90
48007;DHT22;33771;48.180;11.400;2023-07-24T04:16:43;17.20;99.90
48007;DHT22;33771;48.180;11.400;2023-07-24T04:19:09;17.20;99.90
48007;DHT22;33771;48.180;11.400;2023-07-24T04:21:34;17.20;99.90
48007;DHT22;33771;48.180;11.400;2023-07-24T04:24:00;17.30;99.90
48007;DHT22;33771;48.180;11.400;2023-07-24T04:26:25;17.30;99.90
48007;DHT22;33771;48.180;11.400;2023-07-24T04:28:51;17.30;99.90
48007;DHT22;33771;48.180;11.400;2023-07-24T04:31:16;17.30;99.90
48007;DHT22;33771;48.180;11.400;2023-07-24T04:33:42;17.30;99.90
48007;DHT22;33771;48.180;11.400;2023-07-24T04:36:07;17.20;99.90
48007;DHT22;33771;48.180;11.400;2023-07-24T04:38:33;17.20;99.90
48007;DHT22;33771;48.180;11.400;2023-07-24T04:41:01;17.30;99.90
48007;DHT22;33771;48.180;11.400;2023-07-24T04:43:28;17.30;99.90
48007;DHT22;33771;48.180;11.400;2023-07-24T04:45:53;17.30;99.90
48007;DHT22;33771;48.180;11.400;2023-07-24T04:48:20;17.30;99.90
48007;DHT22;33771;48.180;11.400;2023-07-24T04:50:46;17.30;99.90
48007;DHT22;33771;48.180;11.400;2023-07-24T04:53:11;17.30;99.90
48007;DHT22;33771;48.180;11.400;2023-07-24T04:55:40;17.30;99.90
48007;DHT22;33771;48.180;11.400;2023-07-24T04:58:06;17.30;99.90
48007;DHT22;33771;48.180;11.400;2023-07-24T05:00:31;17.30;99.90
48007;DHT22;33771;48.180;11.400;2023-07-24T05:02:57;17.30;99.90
48007;DHT22;33771;48.180;11.400;2023-07-24T05:05:22;17.30;99.90
48007;DHT22;33771;48.180;11.400;2023-07-24T05:07:48;17.30;99.90
48007;DHT22;33771;48.180;11.400;2023-07-24T05:10:13;17.30;99.90
48007;DHT22;33771;48.180;11.400;2023-07-24T05:12:42;17.40;99.90
48007;DHT22;33771;48.180;11.400;2023-07-24T05:15:08;17.50;99.90
48007;DHT22;33771;48.180;11.400;2023-07-24T05:17:34;17.50;99.90
48007;DHT22;33771;48.180;11.400;2023-07-24T05:19:59;17.50;99.90
48007;DHT22;33771;48.180;11.400;2023-07-24T05:22:25;17.50;99.90
48007;DHT22;33771;48.180;11.400;2023-07-24T05:24:50;17.50;99.90
48007;DHT22;33771;48.180;11.400;2023-07-24T05:27:16;17.50;99.90
48007;DHT22;33771;48.180;11.400;2023-07-24T05:29:41;17.50;99.90
48007;DHT22;33771;48.180;11.400;2023-07-24T05:32:07;17.50;99.90
48007;DHT22;33771;48.180;11.400;2023-07-24T05:34:33;17.50;99.90
48007;DHT22;33771;48.180;11.400;2023-07-24T05:36:58;17.60;99.90
48007;DHT22;33771;48.180;11.400;2023-07-24T05:39:24;17.60;99.90
48007;DHT22;33771;48.180;11.400;2023-07-24T05:41:49;17.70;99.90
48007;DHT22;33771;48.180;11.400;2023-07-24T05:44:15;17.80;99.90
48007;DHT22;33771;48.180;11.400;2023-07-24T05:46:40;17.80;99.90
48007;DHT22;33771;48.180;11.400;2023-07-24T05:49:06;18.00;99.90
48007;DHT22;33771;48.180;11.400;2023-07-24T05:51:31;18.10;99.90
48007;DHT22;33771;48.180;11.400;2023-07-24T05:53:57;18.20;99.90
48007;DHT22;33771;48.180;11.400;2023-07-24T05:56:22;18.30;99.90
48007;DHT22;33771;48.180;11.400;2023-07-24T05:58:49;18.50;99.90
48007;DHT22;33771;48.180;11.400;2023-07-24T06:01:14;18.70;99.90
48007;DHT22;33771;48.180;11.400;2023-07-24T06:03:40;18.80;99.90
48007;DHT22;33771;48.180;11.400;2023-07-24T06:06:05;19.00;99.90
48007;DHT22;33771;48.180;11.400;2023-07-24T06:08:31;19.20;99.90
48007;DHT22;33771;48.180;11.400;2023-07-24T06:10:56;19.30;99.90
48007;DHT22;33771;48.180;11.400;2023-07-24T06:13:22;19.40;99.90
48007;DHT22;33771;48.180;11.400;2023-07-24T06:15:49;19.60;99.90
48007;DHT22;33771;48.180;11.400;2023-07-24T06:18:15;19.60;99.90
48007;DHT22;33771;48.180;11.400;2023-07-24T06:20:40;19.80;99.90
48007;DHT22;33771;48.180;11.400;2023-07-24T06:23:06;19.80;99.90
48007;DHT22;33771;48.180;11.400;2023-07-24T06:25:32;19.80;99.90
48007;DHT22;33771;48.180;11.400;2023-07-24T06:27:58;19.80;99.90
48007;DHT22;33771;48.180;11.400;2023-07-24T06:30:23;19.90;99.90
48007;DHT22;33771;48.180;11.400;2023-07-24T06:32:49;20.00;99.90
48007;DHT22;33771;48.180;11.400;2023-07-24T06:35:15;20.30;99.90
48007;DHT22;33771;48.180;11.400;2023-07-24T06:37:41;20.50;99.90
48007;DHT22;33771;48.180;11.400;2023-07-24T06:40:07;20.70;99.90
48007;DHT22;33771;48.180;11.400;2023-07-24T06:42:33;20.80;99.90
48007;DHT22;33771;48.180;11.400;2023-07-24T06:44:58;21.00;99.90
48007;DHT22;33771;48.180;11.400;2023-07-24T06:47:24;21.10;99.90
48007;DHT22;33771;48.180;11.400;2023-07-24T06:49:50;21.20;99.90
48007;DHT22;33771;48.180;11.400;2023-07-24T06:52:15;21.50;99.90
48007;DHT22;33771;48.180;11.400;2023-07-24T06:54:41;21.60;99.90
48007;DHT22;33771;48.180;11.400;2023-07-24T06:57:07;21.80;99.90
48007;DHT22;33771;48.180;11.400;2023-07-24T06:59:33;22.00;99.90
48007;DHT22;33771;48.180;11.400;2023-07-24T07:01:58;22.30;99.90
48007;DHT22;33771;48.180;11.400;2023-07-24T07:04:24;22.40;99.90
48007;DHT22;33771;48.180;11.400;2023-07-24T07:06:49;22.50;99.90
48007;DHT22;33771;48.180;11.400;2023-07-24T07:09:15;22.60;99.90
48007;DHT22;33771;48.180;11.400;2023-07-24T07:11:40;22.60;99.90
48007;DHT22;33771;48.180;11.400;2023-07-24T07:14:08;22.60;99.90
48007;DHT22;33771;48.180;11.400;2023-07-24T07:16:34;22.50;99.90
48007;DHT22;33771;48.180;11.400;2023-07-24T07:19:00;22.40;99.90
48007;DHT22;33771;48.180;11.400;2023-07-24T07:21:25;22.30;99.90
48007;DHT22;33771;48.180;11.400;2023-07-24T07:23:51;22.10;99.90
48007;DHT22;33771;48.180;11.400;2023-07-24T07:26:16;22.00;99.90
48007;DHT22;33771;48.180;11.400;2023-07-24T07:28:43;21.70;99.90
48007;DHT22;33771;48.180;11.400;2023-07-24T07:31:10;21.40;99.90
48007;DHT22;33771;48.180;11.400;2023-07-24T07:33:36;20.90;99.90
48007;DHT22;33771;48.180;11.400;2023-07-24T07:36:02;20.40;99.90
48007;DHT22;33771;48.180;11.400;2023-07-24T07:38:29;20.20;99.90
48007;DHT22;33771;48.180;11.400;2023-07-24T07:40:55;19.90;99.90
48007;DHT22;33771;48.180;11.400;2023-07-24T07:43:20;19.70;99.90
48007;DHT22;33771;48.180;11.400;2023-07-24T07:45:47;19.50;99.90
48007;DHT22;33771;48.180;11.400;2023-07-24T07:48:12;19.40;99.90
48007;DHT22;33771;48.180;11.400;2023-07-24T07:50:38;19.30;99.90
48007;DHT22;33771;48.180;11.400;2023-07-24T07:53:03;19.20;99.90
48007;DHT22;33771;48.180;11.400;2023-07-24T07:55:29;19.20;99.90
48007;DHT22;33771;48.180;11.400;2023-07-24T07:57:55;19.10;99.90
48007;DHT22;33771;48.180;11.400;2023-07-24T08:00:20;19.10;99.90
48007;DHT22;33771;48.180;11.400;2023-07-24T08:02:46;19.00;99.90
48007;DHT22;33771;48.180;11.400;2023-07-24T08:05:11;19.00;99.90
48007;DHT22;33771;48.180;11.400;2023-07-24T08:07:37;19.00;99.90
48007;DHT22;33771;48.180;11.400;2023-07-24T08:10:03;19.00;99.90
48007;DHT22;33771;48.180;11.400;2023-07-24T08:12:29;19.00;99.90
48007;DHT22;33771;48.180;11.400;2023-07-24T08:14:58;19.10;99.90
48007;DHT22;33771;48.180;11.400;2023-07-24T08:17:23;19.10;99.90
48007;DHT22;33771;48.180;11.400;2023-07-24T08:19:49;19.10;99.90
48007;DHT22;33771;48.180;11.400;2023-07-24T08:22:14;19.10;99.90
48007;DHT22;33771;48.180;11.400;2023-07-24T08:24:40;19.20;99.90
48007;DHT22;33771;48.180;11.400;2023-07-24T08:27:06;19.20;99.90
48007;DHT22;33771;48.180;11.400;2023-07-24T08:29:31;19.20;99.90
48007;DHT22;33771;48.180;11.400;2023-07-24T08:31:57;19.30;99.90
48007;DHT22;33771;48.180;11.400;2023-07-24T08:34:22;19.30;99.90
48007;DHT22;33771;48.180;11.400;2023-07-24T08:36:48;19.40;99.90
48007;DHT22;33771;48.180;11.400;2023-07-24T08:39:13;19.40;99.90
48007;DHT22;33771;48.180;11.400;2023-07-24T08:41:39;19.40;99.90
48007;DHT22;33771;48.180;11.400;2023-07-24T08:44:08;19.40;99.90
48007;DHT22;33771;48.180;11.400;2023-07-24T08:46:36;19.40;99.90
48007;DHT22;33771;48.180;11.400;2023-07-24T08:49:02;19.40;99.90
48007;DHT22;33771;48.180;11.400;2023-07-24T08:51:29;19.50;99.90
48007;DHT22;33771;48.180;11.400;2023-07-24T08:53:56;19.50;99.90
48007;DHT22;33771;48.180;11.400;2023-07-24T08:56:22;19.50;99.90
48007;DHT22;33771;48.180;11.400;2023-07-24T08:58:47;19.60;99.90
48007;DHT22;33771;48.180;11.400;2023-07-24T09:01:14;19.50;99.90
48007;DHT22;33771;48.180;11.400;2023-07-24T09:03:39;19.50;99.90
48007;DHT22;33771;48.180;11.400;2023-07-24T09:06:05;19.50;99.90
48007;DHT22;33771;48.180;11.400;2023-07-24T09:08:37;19.50;99.90
48007;DHT22;33771;48.180;11.400;2023-07-24T09:11:04;19.50;99.90
48007;DHT22;33771;48.180;11.400;2023-07-24T09:13:30;19.50;99.90
48007;DHT22;33771;48.180;11.400;2023-07-24T09:15:56;19.50;99.90
48007;DHT22;33771;48.180;11.400;2023-07-24T09:18:22;19.50;99.90
48007;DHT22;33771;48.180;11.400;2023-07-24T09:20:48;19.50;99.90
48007;DHT22;33771;48.180;11.400;2023-07-24T09:23:15;19.60;99.90
48007;DHT22;33771;48.180;11.400;2023-07-24T09:25:42;19.60;99.90
48007;DHT22;33771;48.180;11.400;2023-07-24T09:28:13;19.60;99.90
48007;DHT22;33771;48.180;11.400;2023-07-24T09:30:39;19.70;99.90
48007;DHT22;33771;48.180;11.400;2023-07-24T09:33:05;19.80;99.90
48007;DHT22;33771;48.180;11.400;2023-07-24T09:35:31;19.90;99.90
48007;DHT22;33771;48.180;11.400;2023-07-24T09:38:07;20.10;99.90
48007;DHT22;33771;48.180;11.400;2023-07-24T09:40:45;20.20;99.90
48007;DHT22;33771;48.180;11.400;2023-07-24T09:43:20;20.40;99.90
48007;DHT22;33771;48.180;11.400;2023-07-24T09:45:47;20.50;99.90
48007;DHT22;33771;48.180;11.400;2023-07-24T09:48:14;20.70;99.90
48007;DHT22;33771;48.180;11.400;2023-07-24T09:50:42;20.80;99.90
48007;DHT22;33771;48.180;11.400;2023-07-24T09:55:52;20.90;99.90
48007;DHT22;33771;48.180;11.400;2023-07-24T09:58:21;21.00;99.90
48007;DHT22;33771;48.180;11.400;2023-07-24T10:00:48;21.20;99.90
48007;DHT22;33771;48.180;11.400;2023-07-24T10:03:14;21.30;99.90
48007;DHT22;33771;48.180;11.400;2023-07-24T10:05:42;21.40;99.90
48007;DHT22;33771;48.180;11.400;2023-07-24T10:08:09;21.40;99.90
48007;DHT22;33771;48.180;11.400;2023-07-24T10:10:36;21.40;99.90
48007;DHT22;33771;48.180;11.400;2023-07-24T10:13:01;21.50;99.90
48007;DHT22;33771;48.180;11.400;2023-07-24T10:15:27;21.60;99.90
48007;DHT22;33771;48.180;11.400;2023-07-24T10:18:04;21.60;99.90
48007;DHT22;33771;48.180;11.400;2023-07-24T10:20:38;21.70;99.90
48007;DHT22;33771;48.180;11.400;2023-07-24T10:23:05;21.90;99.90
48007;DHT22;33771;48.180;11.400;2023-07-24T10:25:32;22.10;99.90
48007;DHT22;33771;48.180;11.400;2023-07-24T10:28:04;22.30;99.90
48007;DHT22;33771;48.180;11.400;2023-07-24T10:30:33;22.60;99.90
48007;DHT22;33771;48.180;11.400;2023-07-24T10:33:12;22.80;99.90
48007;DHT22;33771;48.180;11.400;2023-07-24T10:35:53;23.00;99.90
48007;DHT22;33771;48.180;11.400;2023-07-24T10:38:19;23.20;99.90
48007;DHT22;33771;48.180;11.400;2023-07-24T10:40:46;23.40;99.90
48007;DHT22;33771;48.180;11.400;2023-07-24T10:43:18;23.50;99.90
48007;DHT22;33771;48.180;11.400;2023-07-24T10:48:13;23.70;99.90
48007;DHT22;33771;48.180;11.400;2023-07-24T10:50:40;23.70;99.90
48007;DHT22;33771;48.180;11.400;2023-07-24T10:53:07;23.80;99.90
48007;DHT22;33771;48.180;11.400;2023-07-24T10:55:33;23.90;99.90
48007;DHT22;33771;48.180;11.400;2023-07-24T10:57:59;23.90;99.90
48007;DHT22;33771;48.180;11.400;2023-07-24T11:00:25;24.00;99.90
48007;DHT22;33771;48.180;11.400;2023-07-24T11:02:53;24.10;99.90
48007;DHT22;33771;48.180;11.400;2023-07-24T11:05:20;24.10;99.90
48007;DHT22;33771;48.180;11.400;2023-07-24T11:07:46;24.30;99.90
48007;DHT22;33771;48.180;11.400;2023-07-24T11:10:18;24.70;99.90
48007;DHT22;33771;48.180;11.400;2023-07-24T11:12:44;25.20;99.90
48007;DHT22;33771;48.180;11.400;2023-07-24T11:15:11;25.60;99.90
48007;DHT22;33771;48.180;11.400;2023-07-24T11:17:38;25.90;99.90
48007;DHT22;33771;48.180;11.400;2023-07-24T11:20:16;26.20;99.90
48007;DHT22;33771;48.180;11.400;2023-07-24T11:22:43;26.50;99.90
48007;DHT22;33771;48.180;11.400;2023-07-24T11:25:10;26.60;99.90
48007;DHT22;33771;48.180;11.400;2023-07-24T11:27:41;26.80;99.90
48007;DHT22;33771;48.180;11.400;2023-07-24T11:30:10;26.80;99.90
48007;DHT22;33771;48.180;11.400;2023-07-24T11:32:41;26.80;99.90
48007;DHT22;33771;48.180;11.400;2023-07-24T11:35:08;26.90;99.90
48007;DHT22;33771;48.180;11.400;2023-07-24T11:37:34;26.90;99.90
48007;DHT22;33771;48.180;11.400;2023-07-24T11:40:02;26.90;99.90
48007;DHT22;33771;48.180;11.400;2023-07-24T11:42:41;27.00;99.90
48007;DHT22;33771;48.180;11.400;2023-07-24T11:45:08;26.90;99.90
48007;DHT22;33771;48.180;11.400;2023-07-24T11:47:45;26.80;99.90
48007;DHT22;33771;48.180;11.400;2023-07-24T11:50:11;26.70;99.90
48007;DHT22;33771;48.180;11.400;2023-07-24T11:52:38;26.50;99.90
48007;DHT22;33771;48.180;11.400;2023-07-24T11:55:04;26.20;99.90
48007;DHT22;33771;48.180;11.400;2023-07-24T11:57:30;26.10;99.90
48007;DHT22;33771;48.180;11.400;2023-07-24T11:59:55;25.90;99.90
48007;DHT22;33771;48.180;11.400;2023-07-24T12:02:25;25.70;99.90
48007;DHT22;33771;48.180;11.400;2023-07-24T12:04:59;25.40;99.90
48007;DHT22;33771;48.180;11.400;2023-07-24T12:07:33;25.20;99.90
48007;DHT22;33771;48.180;11.400;2023-07-24T12:10:00;25.00;99.90
48007;DHT22;33771;48.180;11.400;2023-07-24T12:12:43;24.80;99.90
48007;DHT22;33771;48.180;11.400;2023-07-24T12:15:09;24.40;99.90
48007;DHT22;33771;48.180;11.400;2023-07-24T12:17:35;24.00;99.90
48007;DHT22;33771;48.180;11.400;2023-07-24T12:20:01;23.70;99.90
48007;DHT22;33771;48.180;11.400;2023-07-24T12:22:27;23.30;99.90
48007;DHT22;33771;48.180;11.400;2023-07-24T12:24:53;23.00;99.90
48007;DHT22;33771;48.180;11.400;2023-07-24T12:27:18;22.60;99.90
48007;DHT22;33771;48.180;11.400;2023-07-24T12:29:44;22.30;99.90
48007;DHT22;33771;48.180;11.400;2023-07-24T12:32:09;22.10;99.90
48007;DHT22;33771;48.180;11.400;2023-07-24T12:34:35;22.00;99.90
48007;DHT22;33771;48.180;11.400;2023-07-24T12:37:00;22.20;99.90
48007;DHT22;33771;48.180;11.400;2023-07-24T12:39:26;22.40;99.90
48007;DHT22;33771;48.180;11.400;2023-07-24T12:41:52;22.60;99.90
48007;DHT22;33771;48.180;11.400;2023-07-24T12:44:17;22.60;99.90
48007;DHT22;33771;48.180;11.400;2023-07-24T12:46:43;22.60;99.90
48007;DHT22;33771;48.180;11.400;2023-07-24T12:49:08;22.40;99.90
48007;DHT22;33771;48.180;11.400;2023-07-24T12:51:34;22.20;99.90
48007;DHT22;33771;48.180;11.400;2023-07-24T12:53:59;22.00;99.90
48007;DHT22;33771;48.180;11.400;2023-07-24T12:56:25;21.90;99.90
48007;DHT22;33771;48.180;11.400;2023-07-24T12:58:50;21.80;99.90
48007;DHT22;33771;48.180;11.400;2023-07-24T13:01:16;21.70;99.90
48007;DHT22;33771;48.180;11.400;2023-07-24T13:03:41;21.50;99.90
48007;DHT22;33771;48.180;11.400;2023-07-24T13:06:07;21.40;99.90
48007;DHT22;33771;48.180;11.400;2023-07-24T13:08:33;21.30;99.90
48007;DHT22;33771;48.180;11.400;2023-07-24T13:10:58;21.20;99.90
48007;DHT22;33771;48.180;11.400;2023-07-24T13:13:24;21.10;99.90
48007;DHT22;33771;48.180;11.400;2023-07-24T13:15:49;21.10;99.90
48007;DHT22;33771;48.180;11.400;2023-07-24T13:18:16;21.10;99.90
48007;DHT22;33771;48.180;11.400;2023-07-24T13:20:42;21.10;99.90
48007;DHT22;33771;48.180;11.400;2023-07-24T13:23:08;21.00;99.90
48007;DHT22;33771;48.180;11.400;2023-07-24T13:25:33;20.90;99.90
48007;DHT22;33771;48.180;11.400;2023-07-24T13:27:59;20.90;99.90
48007;DHT22;33771;48.180;11.400;2023-07-24T13:30:25;20.80;99.90
48007;DHT22;33771;48.180;11.400;2023-07-24T13:32:50;20.80;99.90
48007;DHT22;33771;48.180;11.400;2023-07-24T13:35:16;20.70;99.90
48007;DHT22;33771;48.180;11.400;2023-07-24T13:37:42;20.60;99.90
48007;DHT22;33771;48.180;11.400;2023-07-24T13:40:08;20.60;99.90
48007;DHT22;33771;48.180;11.400;2023-07-24T13:42:33;20.60;99.90
48007;DHT22;33771;48.180;11.400;2023-07-24T13:44:59;20.70;99.90
48007;DHT22;33771;48.180;11.400;2023-07-24T13:47:24;20.80;99.90
48007;DHT22;33771;48.180;11.400;2023-07-24T13:49:50;20.90;99.90
48007;DHT22;33771;48.180;11.400;2023-07-24T13:52:16;21.00;99.90
48007;DHT22;33771;48.180;11.400;2023-07-24T13:54:41;21.20;99.90
48007;DHT22;33771;48.180;11.400;2023-07-24T13:57:07;21.40;99.90
48007;DHT22;33771;48.180;11.400;2023-07-24T13:59:36;21.50;99.90
48007;DHT22;33771;48.180;11.400;2023-07-24T14:02:03;21.60;99.90
48007;DHT22;33771;48.180;11.400;2023-07-24T14:04:29;21.70;99.90
48007;DHT22;33771;48.180;11.400;2023-07-24T14:06:55;21.90;99.90
48007;DHT22;33771;48.180;11.400;2023-07-24T14:09:20;22.00;99.90
48007;DHT22;33771;48.180;11.400;2023-07-24T14:11:46;22.10;99.90
48007;DHT22;33771;48.180;11.400;2023-07-24T14:14:11;22.10;99.90
48007;DHT22;33771;48.180;11.400;2023-07-24T14:16:37;22.20;99.90
48007;DHT22;33771;48.180;11.400;2023-07-24T14:19:02;22.30;99.90
48007;DHT22;33771;48.180;11.400;2023-07-24T14:21:28;22.30;99.90
48007;DHT22;33771;48.180;11.400;2023-07-24T14:23:54;22.30;99.90
48007;DHT22;33771;48.180;11.400;2023-07-24T14:26:19;22.40;99.90
48007;DHT22;33771;48.180;11.400;2023-07-24T14:28:45;22.50;99.90
48007;DHT22;33771;48.180;11.400;2023-07-24T14:31:11;22.60;99.90
48007;DHT22;33771;48.180;11.400;2023-07-24T14:33:36;22.50;99.90
48007;DHT22;33771;48.180;11.400;2023-07-24T14:36:02;22.40;99.90
48007;DHT22;33771;48.180;11.400;2023-07-24T14:38:28;22.40;99.90
48007;DHT22;33771;48.180;11.400;2023-07-24T14:40:53;22.40;99.90
48007;DHT22;33771;48.180;11.400;2023-07-24T14:43:18;22.40;99.90
48007;DHT22;33771;48.180;11.400;2023-07-24T14:45:44;22.40;99.90
48007;DHT22;33771;48.180;11.400;2023-07-24T14:48:10;22.30;99.90
48007;DHT22;33771;48.180;11.400;2023-07-24T14:50:37;22.20;99.90
48007;DHT22;33771;48.180;11.400;2023-07-24T14:53:03;22.20;99.90
48007;DHT22;33771;48.180;11.400;2023-07-24T14:55:29;22.20;99.90
48007;DHT22;33771;48.180;11.400;2023-07-24T14:57:55;22.10;99.90
48007;DHT22;33771;48.180;11.400;2023-07-24T15:00:20;22.20;99.90
48007;DHT22;33771;48.180;11.400;2023-07-24T15:02:46;22.20;99.90
48007;DHT22;33771;48.180;11.400;2023-07-24T15:05:11;22.20;99.90
48007;DHT22;33771;48.180;11.400;2023-07-24T15:07:37;22.20;99.90
48007;DHT22;33771;48.180;11.400;2023-07-24T15:10:02;22.30;99.90
48007;DHT22;33771;48.180;11.400;2023-07-24T15:12:28;22.30;99.90
48007;DHT22;33771;48.180;11.400;2023-07-24T15:14:54;22.20;99.90